createdAt,value
2018-02-18T04:36:28.910Z,0.21
2018-02-18T04:37:28.890Z,0.26
2018-02-18T04:38:28.882Z,0.29
2018-02-18T04:39:28.816Z,0.28
2018-02-18T04:40:28.805Z,0.18
2018-02-18T04:41:28.777Z,0.15
2018-02-18T04:42:28.787Z,0.23
2018-02-18T04:43:28.735Z,0.26
2018-02-18T04:44:28.755Z,0.24
2018-02-18T04:45:28.699Z,0.31
2018-02-18T04:46:28.675Z,0.20
2018-02-18T04:47:28.662Z,0.28
2018-02-18T04:48:28.647Z,0.17
2018-02-18T04:49:28.683Z,0.20
2018-02-18T04:50:28.593Z,0.17
2018-02-18T04:51:28.576Z,0.21
2018-02-18T04:52:28.556Z,0.23
2018-02-18T04:53:28.527Z,0.15
2018-02-18T04:54:28.510Z,0.29
2018-02-18T04:55:28.504Z,0.26
2018-02-18T04:56:28.525Z,0.31
2018-02-18T04:57:28.451Z,0.20
2018-02-18T04:58:28.446Z,0.21
2018-02-18T04:59:28.414Z,0.18
2018-02-18T05:00:28.394Z,0.18
2018-02-18T05:01:28.390Z,0.28
2018-02-18T05:02:28.370Z,0.23
2018-02-18T05:03:28.326Z,0.24
2018-02-18T05:04:28.318Z,0.26
2018-02-18T05:05:28.297Z,0.23
2018-02-18T05:06:28.307Z,0.29
2018-02-18T05:07:28.249Z,0.26
2018-02-18T05:08:28.227Z,0.29
2018-02-18T05:09:28.207Z,0.33
2018-02-18T05:10:28.202Z,0.24
2018-02-18T05:11:28.228Z,0.31
2018-02-18T05:12:28.150Z,0.24
2018-02-18T05:13:28.139Z,0.23
2018-02-18T05:14:28.114Z,0.28
2018-02-18T05:15:28.094Z,0.21
2018-02-18T05:16:28.076Z,0.24
2018-02-18T05:17:28.081Z,0.17
2018-02-18T05:18:28.029Z,0.15
2018-02-18T05:19:28.014Z,0.15
2018-02-18T05:20:28.019Z,0.28
2018-02-18T05:21:27.966Z,0.31
2018-02-18T05:22:27.958Z,0.20
2018-02-18T05:23:27.935Z,0.31
2018-02-18T05:24:27.924Z,0.21
2018-02-18T05:25:27.925Z,0.31
2018-02-18T05:26:27.936Z,0.33
2018-02-18T05:27:27.848Z,0.26
2018-02-18T05:28:27.829Z,0.26
2018-02-18T05:29:27.818Z,0.32
2018-02-18T05:30:27.784Z,0.26
2018-02-18T05:31:27.762Z,0.35
2018-02-18T05:32:27.748Z,0.24
2018-02-18T05:33:27.727Z,0.24
2018-02-18T05:34:27.706Z,0.23
2018-02-18T05:35:27.701Z,0.33
2018-02-18T05:36:27.677Z,0.28
2018-02-18T05:37:27.691Z,0.31
2018-02-18T05:38:27.655Z,0.31
2018-02-18T05:39:28.302Z,0.38
2018-02-18T05:40:27.587Z,0.32
2018-02-18T05:41:27.570Z,0.32
2018-02-18T05:42:27.574Z,0.35
2018-02-18T05:43:28.292Z,0.26
2018-02-18T05:44:27.512Z,0.26
2018-02-18T05:45:27.540Z,0.24
2018-02-18T05:46:27.480Z,0.23
2018-02-18T05:47:27.451Z,0.26
2018-02-18T05:48:27.423Z,0.29
2018-02-18T05:49:27.411Z,0.24
2018-02-18T05:50:27.389Z,0.29
2018-02-18T05:51:27.377Z,0.28
2018-02-18T05:52:27.349Z,0.24
2018-02-18T05:53:27.326Z,0.21
2018-02-18T05:54:27.318Z,0.31
2018-02-18T05:55:27.351Z,0.31
2018-02-18T05:56:27.279Z,0.21
2018-02-18T05:57:27.252Z,0.32
2018-02-18T05:58:27.235Z,0.28
2018-02-18T05:59:27.204Z,0.24
2018-02-18T06:00:27.189Z,0.14
2018-02-18T06:01:27.183Z,0.17
2018-02-18T06:02:27.166Z,0.20
2018-02-18T06:03:27.127Z,0.24
2018-02-18T06:04:27.113Z,0.24
2018-02-18T06:05:27.094Z,0.15
2018-02-18T06:06:27.099Z,0.28
2018-02-18T06:07:27.058Z,0.31
2018-02-18T06:08:27.025Z,0.26
2018-02-18T06:09:27.068Z,0.28
2018-02-18T06:10:26.982Z,0.21
2018-02-18T06:11:26.969Z,0.23
2018-02-18T06:12:26.952Z,0.18
2018-02-18T06:13:26.920Z,0.18
2018-02-18T06:14:26.920Z,0.18
2018-02-18T06:15:26.957Z,0.20
2018-02-18T06:16:26.872Z,0.18
2018-02-18T06:17:26.846Z,0.13
2018-02-18T06:18:26.828Z,0.24
2018-02-18T06:19:26.810Z,0.21
2018-02-18T06:20:26.786Z,0.24
2018-02-18T06:21:26.768Z,0.14
2018-02-18T06:22:26.746Z,0.21
2018-02-18T06:23:26.732Z,0.18
2018-02-18T06:24:26.733Z,0.17
2018-02-18T06:25:26.691Z,0.21
2018-02-18T06:26:26.700Z,0.17
2018-02-18T06:27:26.649Z,0.17
2018-02-18T06:28:26.626Z,0.21
2018-02-18T06:29:26.661Z,0.17
2018-02-18T06:30:26.580Z,0.14
2018-02-18T06:31:26.569Z,0.21
2018-02-18T06:32:26.560Z,0.17
2018-02-18T06:33:26.535Z,0.24
2018-02-18T06:34:26.516Z,0.20
2018-02-18T06:35:26.525Z,0.26
2018-02-18T06:36:26.508Z,0.23
2018-02-18T06:37:26.450Z,0.21
2018-02-18T06:38:26.419Z,0.24
2018-02-18T06:39:26.407Z,0.21
2018-02-18T06:40:26.374Z,0.18
2018-02-18T06:41:26.420Z,0.21
2018-02-18T06:42:26.340Z,0.20
2018-02-18T06:43:26.320Z,0.21
2018-02-18T06:44:26.303Z,0.20
2018-02-18T06:45:26.277Z,0.21
2018-02-18T06:46:26.258Z,0.07
2018-02-18T06:47:26.279Z,0.18
2018-02-18T06:48:26.278Z,0.13
2018-02-18T06:49:26.209Z,0.18
2018-02-18T06:50:26.178Z,0.20
2018-02-18T06:51:26.198Z,0.17
2018-02-18T06:52:26.135Z,0.18
2018-02-18T06:53:26.115Z,0.17
2018-02-18T06:54:26.173Z,0.13
2018-02-18T06:55:26.086Z,0.23
2018-02-18T06:56:26.060Z,0.17
2018-02-18T06:57:26.045Z,0.23
2018-02-18T06:58:26.031Z,0.21
2018-02-18T06:59:26.007Z,0.23
2018-02-18T07:00:25.979Z,0.21
2018-02-18T07:01:25.978Z,0.26
2018-02-18T07:02:25.943Z,0.26
2018-02-18T07:03:25.918Z,0.26
2018-02-18T07:04:25.892Z,0.28
2018-02-18T07:05:25.913Z,0.21
2018-02-18T07:06:25.861Z,0.17
2018-02-18T07:07:25.844Z,0.28
2018-02-18T07:08:25.821Z,0.26
2018-02-18T07:09:25.797Z,0.24
2018-02-18T07:10:25.789Z,0.26
2018-02-18T07:11:26.308Z,0.26
2018-02-18T07:12:25.749Z,0.31
2018-02-18T07:13:25.726Z,0.15
2018-02-18T07:14:25.707Z,0.20
2018-02-18T07:15:25.740Z,0.26
2018-02-18T07:16:25.671Z,0.26
2018-02-18T07:17:25.651Z,0.17
2018-02-18T07:18:25.620Z,0.23
2018-02-18T07:19:25.599Z,0.29
2018-02-18T07:20:25.572Z,0.24
2018-02-18T07:21:25.618Z,0.29
2018-02-18T07:22:25.535Z,0.31
2018-02-18T07:23:25.521Z,0.31
2018-02-18T07:24:25.500Z,0.26
2018-02-18T07:25:25.474Z,0.33
2018-02-18T07:26:25.462Z,0.35
2018-02-18T07:27:25.446Z,0.31
2018-02-18T07:28:25.413Z,0.21
2018-02-18T07:29:25.426Z,0.28
2018-02-18T07:30:25.384Z,0.24
2018-02-18T07:31:25.362Z,0.32
2018-02-18T07:32:25.345Z,0.36
2018-02-18T07:33:25.381Z,0.42
2018-02-18T07:34:25.298Z,0.44
2018-02-18T07:35:25.286Z,0.44
2018-02-18T07:36:25.252Z,0.41
2018-02-18T07:37:25.289Z,0.49
2018-02-18T07:38:25.213Z,0.47
2018-02-18T07:39:25.251Z,0.55
2018-02-18T07:40:25.182Z,0.57
2018-02-18T07:41:25.158Z,0.58
2018-02-18T07:42:25.148Z,0.55
2018-02-18T07:43:31.844Z,0.55
2018-02-18T07:44:25.451Z,0.55
2018-02-18T07:45:25.106Z,0.53
2018-02-18T07:46:25.085Z,0.51
2018-02-18T07:47:25.139Z,0.51
2018-02-18T07:48:25.035Z,0.58
2018-02-18T07:49:25.018Z,0.55
2018-02-18T07:50:25.002Z,0.61
2018-02-18T07:51:24.979Z,0.58
2018-02-18T07:52:24.973Z,0.66
2018-02-18T07:53:24.948Z,0.68
2018-02-18T07:54:24.920Z,0.57
2018-02-18T07:55:24.911Z,0.73
2018-02-18T07:56:24.901Z,0.68
2018-02-18T07:57:24.972Z,0.78
2018-02-18T07:58:24.843Z,0.62
2018-02-18T07:59:24.861Z,0.72
2018-02-18T08:00:24.804Z,0.68
2018-02-18T08:01:24.786Z,0.62
2018-02-18T08:02:24.754Z,0.78
2018-02-18T08:03:24.816Z,0.78
2018-02-18T08:04:24.727Z,0.70
2018-02-18T08:05:24.778Z,0.62
2018-02-18T08:06:24.684Z,0.79
2018-02-18T08:07:24.661Z,0.66
2018-02-18T08:08:24.696Z,0.68
2018-02-18T08:09:24.744Z,0.69
2018-02-18T08:10:24.624Z,0.80
2018-02-18T08:11:24.722Z,0.72
2018-02-18T08:12:24.564Z,0.72
2018-02-18T08:13:24.567Z,0.73
2018-02-18T08:14:24.530Z,0.79
2018-02-18T08:15:24.528Z,0.88
2018-02-18T08:16:24.495Z,0.94
2018-02-18T08:42:00.664Z,1.11
2018-02-18T08:42:51.869Z,1.12
2018-02-18T08:43:51.861Z,1.22
2018-02-18T08:44:51.892Z,1.14
2018-02-18T08:45:51.830Z,1.08
2018-02-18T08:46:51.812Z,1.08
2018-02-18T08:47:51.758Z,1.20
2018-02-18T08:48:51.746Z,1.22
2018-02-18T08:49:51.723Z,1.20
2018-02-18T08:50:51.749Z,1.22
2018-02-18T08:51:51.675Z,1.27
2018-02-18T08:52:51.712Z,1.32
2018-02-18T08:53:51.636Z,1.27
2018-02-18T08:54:51.629Z,1.40
2018-02-18T08:55:51.626Z,1.45
2018-02-18T08:56:53.006Z,1.40
2018-02-18T08:57:51.987Z,1.40
2018-02-18T08:58:52.688Z,1.41
2018-02-18T08:59:51.753Z,1.45
2018-02-18T09:00:51.505Z,1.45
2018-02-18T09:01:51.513Z,1.47
2018-02-18T09:02:51.496Z,1.47
2018-02-18T09:03:51.448Z,1.60
2018-02-18T09:04:52.216Z,1.54
2018-02-18T09:05:51.425Z,1.54
2018-02-18T09:06:51.544Z,1.62
2018-02-18T09:07:51.658Z,1.59
2018-02-18T09:08:51.454Z,1.58
2018-02-18T09:09:51.459Z,1.59
2018-02-18T09:10:51.422Z,1.62
2018-02-18T09:11:51.291Z,1.63
2018-02-18T09:12:51.321Z,1.60
2018-02-18T09:13:51.251Z,1.69
2018-02-18T09:14:51.244Z,1.69
2018-02-18T09:15:51.236Z,1.73
2018-02-18T09:16:51.208Z,1.79
2018-02-18T09:17:51.227Z,1.79
2018-02-18T09:18:51.173Z,1.76
2018-02-18T09:19:51.137Z,1.73
2018-02-18T09:20:51.492Z,1.76
2018-02-18T09:21:51.164Z,1.91
2018-02-18T09:22:51.098Z,1.88
2018-02-18T09:23:51.083Z,1.83
2018-02-18T09:24:51.133Z,1.84
2018-02-18T09:25:51.054Z,1.87
2018-02-18T09:26:51.048Z,1.99
2018-02-18T09:27:51.023Z,1.93
2018-02-18T09:28:50.988Z,1.98
2018-02-18T09:29:50.975Z,1.95
2018-02-18T09:30:52.026Z,1.99
2018-02-18T09:31:50.977Z,2.09
2018-02-18T09:32:50.908Z,2.10
2018-02-18T09:33:50.894Z,2.09
2018-02-18T09:34:50.945Z,2.06
2018-02-18T09:35:51.035Z,2.02
2018-02-18T09:36:50.899Z,2.10
2018-02-18T09:37:50.852Z,2.09
2018-02-18T09:38:50.855Z,2.10
2018-02-18T09:39:50.800Z,2.16
2018-02-18T09:40:50.805Z,2.10
2018-02-18T09:41:50.872Z,2.07
2018-02-18T09:42:50.806Z,2.14
2018-02-18T09:43:50.831Z,2.16
2018-02-18T09:44:50.696Z,2.21
2018-02-18T09:45:50.789Z,2.21
2018-02-18T09:46:50.670Z,2.24
2018-02-18T09:47:50.707Z,2.27
2018-02-18T09:48:50.633Z,2.28
2018-02-18T09:49:50.633Z,2.28
2018-02-18T09:50:50.579Z,2.31
2018-02-18T09:51:50.576Z,2.39
2018-02-18T09:52:51.472Z,2.46
2018-02-18T09:53:50.534Z,2.49
2018-02-18T09:55:12.491Z,2.53
2018-02-18T09:55:50.594Z,2.57
2018-02-18T09:56:50.501Z,2.60
2018-02-18T09:57:51.104Z,2.60
2018-02-18T09:58:51.049Z,2.57
2018-02-18T09:59:50.458Z,2.64
2018-02-18T10:00:50.529Z,2.69
2018-02-18T10:01:51.112Z,2.66
2018-02-18T10:02:51.082Z,2.71
2018-02-18T10:03:50.430Z,2.67
2018-02-18T10:04:50.450Z,2.77
2018-02-18T10:05:50.414Z,2.81
2018-02-18T10:06:52.016Z,2.81
2018-02-18T10:07:50.996Z,2.85
2018-02-18T10:08:50.301Z,2.78
2018-02-18T10:09:50.247Z,2.79
2018-02-18T10:10:50.365Z,2.87
2018-02-18T10:11:50.236Z,2.87
2018-02-18T10:12:50.224Z,2.82
2018-02-18T10:13:50.351Z,2.89
2018-02-18T10:14:50.449Z,2.95
2018-02-18T10:15:50.965Z,2.85
2018-02-18T10:16:50.207Z,2.87
2018-02-18T10:17:50.107Z,2.96
2018-02-18T10:18:50.126Z,2.96
2018-02-18T10:19:50.086Z,3.00
2018-02-18T10:20:50.075Z,3.05
2018-02-18T10:21:50.052Z,3.13
2018-02-18T10:22:50.023Z,3.15
2018-02-18T10:23:49.992Z,3.29
2018-02-18T10:24:50.001Z,3.26
2018-02-18T10:25:49.980Z,3.29
2018-02-18T10:26:49.950Z,3.32
2018-02-18T10:27:49.954Z,3.31
2018-02-18T10:28:50.009Z,3.31
2018-02-18T10:29:49.899Z,3.45
2018-02-18T10:30:49.901Z,3.47
2018-02-18T10:31:49.913Z,3.45
2018-02-18T10:32:49.933Z,3.51
2018-02-18T10:33:49.914Z,3.55
2018-02-18T10:34:49.847Z,3.52
2018-02-18T10:35:49.811Z,3.57
2018-02-18T10:36:49.855Z,3.62
2018-02-18T10:37:49.870Z,3.55
2018-02-18T10:38:49.743Z,3.60
2018-02-18T10:39:50.088Z,3.69
2018-02-18T10:40:49.713Z,3.62
2018-02-18T10:41:49.711Z,3.72
2018-02-18T10:42:49.700Z,3.69
2018-02-18T10:43:49.789Z,3.80
2018-02-18T10:44:49.642Z,3.79
2018-02-18T10:45:49.645Z,3.80
2018-02-18T10:46:49.756Z,3.86
2018-02-18T10:47:49.599Z,3.88
2018-02-18T10:48:49.580Z,3.83
2018-02-18T10:49:49.584Z,3.98
2018-02-18T10:50:50.476Z,4.00
2018-02-18T10:51:49.591Z,4.04
2018-02-18T10:52:51.588Z,4.09
2018-02-18T10:53:54.848Z,4.09
2018-02-18T12:21:21.940Z,7.25
2018-02-18T12:22:14.013Z,7.32
2018-02-18T12:23:07.346Z,7.35
2018-02-18T12:24:07.298Z,7.39
2018-02-18T14:19:09.128Z,9.23
2018-02-18T14:19:42.102Z,9.23
2018-02-18T14:20:42.074Z,9.08
2018-02-18T14:21:42.086Z,9.17
2018-02-18T14:22:42.131Z,9.15
2018-02-18T14:23:42.884Z,9.13
2018-02-18T14:24:44.186Z,9.11
2018-02-18T14:25:42.873Z,9.14
2018-02-18T14:26:42.047Z,9.08
2018-02-18T14:27:42.035Z,9.02
2018-02-18T14:28:42.060Z,9.01
2018-02-18T14:29:42.019Z,8.98
2018-02-18T14:30:42.054Z,9.10
2018-02-18T14:31:42.066Z,9.01
2018-02-18T14:32:42.010Z,9.05
2018-02-18T14:33:41.960Z,8.95
2018-02-18T14:34:42.007Z,9.01
2018-02-18T14:35:41.949Z,9.04
2018-02-18T14:36:41.961Z,9.10
2018-02-18T14:37:41.972Z,9.05
2018-02-18T14:38:41.943Z,9.08
2018-02-18T14:39:41.930Z,9.17
2018-02-18T14:40:41.893Z,9.17
2018-02-18T14:41:41.917Z,9.05
2018-02-18T14:42:41.874Z,9.01
2018-02-18T14:43:41.852Z,8.79
2018-02-18T14:44:41.871Z,8.80
2018-02-18T14:45:41.852Z,8.76
2018-02-18T14:46:41.804Z,8.80
2018-02-18T14:47:41.887Z,8.79
2018-02-18T14:48:41.890Z,8.79
2018-02-18T14:49:41.809Z,8.73
2018-02-18T14:50:41.840Z,8.76
2018-02-18T14:51:42.101Z,8.79
2018-02-18T14:52:41.749Z,8.89
2018-02-18T14:53:41.834Z,8.77
2018-02-18T14:54:41.790Z,8.76
2018-02-18T14:55:42.431Z,8.62
2018-02-18T14:56:41.740Z,8.50
2018-02-18T14:57:41.707Z,8.48
2018-02-18T14:58:41.673Z,8.34
2018-02-18T14:59:42.410Z,8.34
2018-02-18T15:00:41.666Z,8.30
2018-02-18T15:01:41.683Z,8.22
2018-02-18T15:02:41.637Z,7.98
2018-02-18T15:03:41.660Z,7.89
2018-02-18T15:04:41.621Z,7.77
2018-02-18T15:05:41.609Z,7.71
2018-02-18T15:06:41.663Z,7.64
2018-02-18T15:07:41.593Z,7.61
2018-02-18T15:08:41.591Z,7.57
2018-02-18T15:09:41.561Z,7.46
2018-02-18T15:10:41.543Z,7.35
2018-02-18T15:11:41.540Z,7.23
2018-02-18T15:12:41.611Z,7.15
2018-02-18T15:13:41.528Z,7.02
2018-02-18T15:14:41.499Z,6.94
2018-02-18T15:15:42.538Z,6.85
2018-02-18T15:16:41.530Z,6.76
2018-02-18T15:17:41.495Z,6.79
2018-02-18T15:18:41.488Z,6.61
2018-02-18T15:19:41.893Z,6.64
2018-02-18T15:20:41.408Z,6.55
2018-02-18T15:21:41.412Z,6.51
2018-02-18T15:22:41.429Z,6.52
2018-02-18T15:23:41.417Z,6.44
2018-02-18T15:24:41.406Z,6.38
2018-02-18T15:25:41.911Z,6.38
2018-02-18T15:26:41.367Z,6.40
2018-02-18T15:27:41.376Z,6.34
2018-02-18T15:28:41.348Z,6.22
2018-02-18T15:29:41.421Z,6.12
2018-02-18T15:30:41.403Z,6.21
2018-02-18T15:31:41.272Z,6.21
2018-02-18T15:32:41.255Z,6.21
2018-02-18T15:33:41.309Z,6.27
2018-02-18T15:34:41.224Z,6.25
2018-02-18T15:35:41.277Z,6.27
2018-02-18T15:36:41.217Z,6.25
2018-02-18T15:37:41.250Z,6.27
2018-02-18T15:38:42.174Z,6.18
2018-02-18T15:39:41.216Z,6.25
2018-02-18T15:40:41.343Z,6.21
2018-02-18T15:41:41.279Z,6.11
2018-02-18T15:42:41.169Z,6.22
2018-02-18T15:43:41.128Z,6.14
2018-02-18T15:44:42.118Z,6.11
2018-02-18T15:45:42.618Z,6.11
2018-02-18T15:46:41.293Z,6.17
2018-02-18T15:47:41.280Z,6.14
2018-02-18T15:48:41.057Z,6.14
2018-02-18T15:49:41.939Z,6.15
2018-02-18T15:50:41.739Z,6.14
2018-02-18T15:51:41.111Z,6.18
2018-02-18T15:52:41.091Z,6.18
2018-02-18T15:53:42.175Z,6.14
2018-02-18T15:54:44.051Z,6.27
2018-02-18T15:55:46.701Z,6.21
